Rosamond, CA

4:06 PM PST on December 24, 2014 (GMT -0800)
KCAROSAM4 | Change Station
CLOSE
Current Station
Personal Weather Station
Location: KC0IGH Rosamond, CA
Elevation: 2424 ft
Nearby Weather Stations
Active Advisory: Wind Advisory

Elev 2424 ft 34.85 °N, 118.27 °W | Updated 5 seconds ago

Clear
Clear
61.8 °F
Feels Like 61.8 °F
N
21.0
Wind Variable Wind from SSE
Gusts 21.0 mph

Today
High -- | Low -- °F
--% Chance of Precip.
Yesterday
High -- | Low -- °F
Precip. -- in
6:58 AM 4:47 PM
Waxing Crescent, 12% visible
Pressure 29.93 in
Visibility 10.0 miles
Clouds Clear
Dew Point 41 °F
Humidity 47%
Rainfall 0.00 in
Snow Depth Not available.
UV 0 out of 12
Pollen 4.80 out of 12
Air Quality Not available.
Flu Activity Not available.
METAR KWJF 242356Z AUTO 23013G20KT 10SM CLR 16/03 A2992 RMK AO2 SLP133 T01610033 10183 20072 56020

More Conditions Fewer Conditions

Pressure 29.93 in
Visibility 10.0 miles
Clouds Clear
Dew Point 41 °F
Humidity 47%
Rainfall 0.00 in
Snow Depth Not available.
UV 0 out of 12
Pollen 4.80 out of 12
Air Quality Not available.
Flu Activity Not available.
METAR KWJF 242356Z AUTO 23013G20KT 10SM CLR 16/03 A2992 RMK AO2 SLP133 T01610033 10183 20072 56020

More Conditions Fewer Conditions

10-Day Weather Forecast

Almanac

Astronomy

Dec. 24, 2014 Rise Set
Actual Time
Civil Twilight
Nautical Twilight
Astronomical Twilight
Moon
Length of Visible Light
Length of Day
Tomorrow will be .
, % of the Moon is Illuminated

Today's Extremes

State Highs State Lows

Community

WunderPhotos

Upload Photos

1,780,188 photos uploaded!

WunderBlogs® & News

Nearby

Air Quality

  Air Quality AQ Index Pollutant
Not available.

Snow Depth

Station Depth Elevation

Earthquake Activity

City Distance Mag. Time & Date
Minimum magnitude displayed is 2.5.

Coastal Water Temperatures

Place Temperature

Nearby Weather Stations